sensor_id;sensor_type;location;lat;lon;timestamp;P1;durP1;ratioP1;P2;durP2;ratioP2
71979;SDS011;59853;48.190;11.860;2022-07-18T00:00:06;3.55;;;2.22;;
71979;SDS011;59853;48.190;11.860;2022-07-18T00:02:33;3.20;;;2.45;;
71979;SDS011;59853;48.190;11.860;2022-07-18T00:04:58;4.30;;;2.25;;
71979;SDS011;59853;48.190;11.860;2022-07-18T00:07:24;3.50;;;2.17;;
71979;SDS011;59853;48.190;11.860;2022-07-18T00:09:49;3.83;;;2.40;;
71979;SDS011;59853;48.190;11.860;2022-07-18T00:12:15;5.07;;;2.20;;
71979;SDS011;59853;48.190;11.860;2022-07-18T00:14:40;3.50;;;2.65;;
71979;SDS011;59853;48.190;11.860;2022-07-18T00:17:06;4.55;;;2.30;;
71979;SDS011;59853;48.190;11.860;2022-07-18T00:19:33;3.05;;;2.13;;
71979;SDS011;59853;48.190;11.860;2022-07-18T00:21:59;4.50;;;2.28;;
71979;SDS011;59853;48.190;11.860;2022-07-18T00:24:25;3.60;;;2.20;;
71979;SDS011;59853;48.190;11.860;2022-07-18T00:26:51;3.40;;;2.10;;
71979;SDS011;59853;48.190;11.860;2022-07-18T00:29:16;2.78;;;2.03;;
71979;SDS011;59853;48.190;11.860;2022-07-18T00:31:41;3.35;;;1.95;;
71979;SDS011;59853;48.190;11.860;2022-07-18T00:34:07;2.92;;;2.38;;
71979;SDS011;59853;48.190;11.860;2022-07-18T00:36:32;3.35;;;2.30;;
71979;SDS011;59853;48.190;11.860;2022-07-18T00:38:58;4.18;;;2.28;;
71979;SDS011;59853;48.190;11.860;2022-07-18T00:41:23;2.67;;;2.10;;
71979;SDS011;59853;48.190;11.860;2022-07-18T00:43:50;4.10;;;2.33;;
71979;SDS011;59853;48.190;11.860;2022-07-18T00:46:15;3.88;;;2.28;;
71979;SDS011;59853;48.190;11.860;2022-07-18T00:48:45;5.70;;;2.20;;
71979;SDS011;59853;48.190;11.860;2022-07-18T00:51:11;3.58;;;2.20;;
71979;SDS011;59853;48.190;11.860;2022-07-18T00:53:36;5.32;;;2.60;;
71979;SDS011;59853;48.190;11.860;2022-07-18T00:56:02;3.88;;;2.10;;
71979;SDS011;59853;48.190;11.860;2022-07-18T00:58:29;2.83;;;2.10;;
71979;SDS011;59853;48.190;11.860;2022-07-18T01:00:55;3.75;;;2.63;;
71979;SDS011;59853;48.190;11.860;2022-07-18T01:03:39;5.13;;;2.58;;
71979;SDS011;59853;48.190;11.860;2022-07-18T01:06:05;3.10;;;2.30;;
71979;SDS011;59853;48.190;11.860;2022-07-18T01:08:30;4.45;;;2.20;;
71979;SDS011;59853;48.190;11.860;2022-07-18T01:10:55;3.70;;;2.10;;
71979;SDS011;59853;48.190;11.860;2022-07-18T01:13:21;3.70;;;2.15;;
71979;SDS011;59853;48.190;11.860;2022-07-18T01:15:46;3.88;;;2.30;;
71979;SDS011;59853;48.190;11.860;2022-07-18T01:18:12;2.40;;;2.17;;
71979;SDS011;59853;48.190;11.860;2022-07-18T01:20:37;2.95;;;2.25;;
71979;SDS011;59853;48.190;11.860;2022-07-18T01:23:03;2.95;;;2.28;;
71979;SDS011;59853;48.190;11.860;2022-07-18T01:25:29;3.63;;;2.25;;
71979;SDS011;59853;48.190;11.860;2022-07-18T01:27:54;3.70;;;2.30;;
71979;SDS011;59853;48.190;11.860;2022-07-18T01:30:21;3.95;;;2.42;;
71979;SDS011;59853;48.190;11.860;2022-07-18T01:32:48;4.22;;;2.63;;
71979;SDS011;59853;48.190;11.860;2022-07-18T01:35:21;3.95;;;2.22;;
71979;SDS011;59853;48.190;11.860;2022-07-18T01:37:48;3.97;;;2.10;;
71979;SDS011;59853;48.190;11.860;2022-07-18T01:40:15;2.90;;;2.22;;
71979;SDS011;59853;48.190;11.860;2022-07-18T01:42:41;4.32;;;2.30;;
71979;SDS011;59853;48.190;11.860;2022-07-18T01:45:06;4.28;;;2.60;;
71979;SDS011;59853;48.190;11.860;2022-07-18T01:47:32;4.32;;;2.80;;
71979;SDS011;59853;48.190;11.860;2022-07-18T01:49:57;3.42;;;2.75;;
71979;SDS011;59853;48.190;11.860;2022-07-18T01:52:22;3.50;;;2.42;;
71979;SDS011;59853;48.190;11.860;2022-07-18T01:54:48;3.25;;;2.33;;
71979;SDS011;59853;48.190;11.860;2022-07-18T01:57:13;4.97;;;2.60;;
71979;SDS011;59853;48.190;11.860;2022-07-18T01:59:38;4.13;;;2.80;;
71979;SDS011;59853;48.190;11.860;2022-07-18T02:02:04;3.75;;;2.45;;
71979;SDS011;59853;48.190;11.860;2022-07-18T02:04:29;4.47;;;2.25;;
71979;SDS011;59853;48.190;11.860;2022-07-18T02:07:13;5.25;;;2.70;;
71979;SDS011;59853;48.190;11.860;2022-07-18T02:09:38;3.92;;;2.45;;
71979;SDS011;59853;48.190;11.860;2022-07-18T02:12:04;4.72;;;2.58;;
71979;SDS011;59853;48.190;11.860;2022-07-18T02:14:29;4.85;;;2.78;;
71979;SDS011;59853;48.190;11.860;2022-07-18T02:16:55;8.23;;;2.97;;
71979;SDS011;59853;48.190;11.860;2022-07-18T02:19:20;4.90;;;2.58;;
71979;SDS011;59853;48.190;11.860;2022-07-18T02:21:45;4.50;;;2.72;;
71979;SDS011;59853;48.190;11.860;2022-07-18T02:24:11;6.68;;;3.00;;
71979;SDS011;59853;48.190;11.860;2022-07-18T02:26:36;7.63;;;3.20;;
71979;SDS011;59853;48.190;11.860;2022-07-18T02:29:02;5.32;;;3.30;;
71979;SDS011;59853;48.190;11.860;2022-07-18T02:31:27;4.20;;;2.60;;
71979;SDS011;59853;48.190;11.860;2022-07-18T02:33:52;4.90;;;2.55;;
71979;SDS011;59853;48.190;11.860;2022-07-18T02:36:18;3.63;;;2.55;;
71979;SDS011;59853;48.190;11.860;2022-07-18T02:38:43;4.05;;;2.85;;
71979;SDS011;59853;48.190;11.860;2022-07-18T02:41:09;3.70;;;2.30;;
71979;SDS011;59853;48.190;11.860;2022-07-18T02:43:34;5.47;;;2.80;;
71979;SDS011;59853;48.190;11.860;2022-07-18T02:45:59;3.95;;;2.80;;
71979;SDS011;59853;48.190;11.860;2022-07-18T02:48:25;4.70;;;2.97;;
71979;SDS011;59853;48.190;11.860;2022-07-18T02:50:50;4.00;;;2.72;;
71979;SDS011;59853;48.190;11.860;2022-07-18T02:53:15;3.67;;;2.63;;
71979;SDS011;59853;48.190;11.860;2022-07-18T02:55:41;4.07;;;2.78;;
71979;SDS011;59853;48.190;11.860;2022-07-18T02:58:06;3.60;;;2.90;;
71979;SDS011;59853;48.190;11.860;2022-07-18T03:00:31;4.35;;;2.65;;
71979;SDS011;59853;48.190;11.860;2022-07-18T03:02:57;5.35;;;2.63;;
71979;SDS011;59853;48.190;11.860;2022-07-18T03:05:22;4.07;;;2.47;;
71979;SDS011;59853;48.190;11.860;2022-07-18T03:07:47;4.95;;;2.65;;
71979;SDS011;59853;48.190;11.860;2022-07-18T03:10:13;4.05;;;2.80;;
71979;SDS011;59853;48.190;11.860;2022-07-18T03:12:40;4.05;;;2.30;;
71979;SDS011;59853;48.190;11.860;2022-07-18T03:15:06;3.35;;;2.40;;
71979;SDS011;59853;48.190;11.860;2022-07-18T03:17:31;5.10;;;2.45;;
71979;SDS011;59853;48.190;11.860;2022-07-18T03:19:57;4.68;;;3.00;;
71979;SDS011;59853;48.190;11.860;2022-07-18T03:22:22;5.63;;;3.22;;
71979;SDS011;59853;48.190;11.860;2022-07-18T03:24:48;5.40;;;3.00;;
71979;SDS011;59853;48.190;11.860;2022-07-18T03:27:13;4.63;;;2.97;;
71979;SDS011;59853;48.190;11.860;2022-07-18T03:29:38;3.83;;;2.92;;
71979;SDS011;59853;48.190;11.860;2022-07-18T03:32:04;4.35;;;3.03;;
71979;SDS011;59853;48.190;11.860;2022-07-18T03:34:29;4.88;;;3.13;;
71979;SDS011;59853;48.190;11.860;2022-07-18T03:36:54;5.03;;;3.20;;
71979;SDS011;59853;48.190;11.860;2022-07-18T03:39:20;5.80;;;3.13;;
71979;SDS011;59853;48.190;11.860;2022-07-18T03:41:45;4.05;;;2.90;;
71979;SDS011;59853;48.190;11.860;2022-07-18T03:44:11;3.90;;;2.70;;
71979;SDS011;59853;48.190;11.860;2022-07-18T03:46:36;4.78;;;3.13;;
71979;SDS011;59853;48.190;11.860;2022-07-18T03:49:02;5.75;;;3.00;;
71979;SDS011;59853;48.190;11.860;2022-07-18T03:51:27;4.15;;;2.97;;
71979;SDS011;59853;48.190;11.860;2022-07-18T03:53:53;5.53;;;3.03;;
71979;SDS011;59853;48.190;11.860;2022-07-18T03:56:18;4.60;;;2.85;;
71979;SDS011;59853;48.190;11.860;2022-07-18T03:58:43;4.72;;;3.05;;
71979;SDS011;59853;48.190;11.860;2022-07-18T04:01:09;5.60;;;2.80;;
71979;SDS011;59853;48.190;11.860;2022-07-18T04:03:34;6.22;;;2.85;;
71979;SDS011;59853;48.190;11.860;2022-07-18T04:06:00;5.32;;;2.90;;
71979;SDS011;59853;48.190;11.860;2022-07-18T04:08:25;4.75;;;3.10;;
71979;SDS011;59853;48.190;11.860;2022-07-18T04:10:51;4.72;;;3.17;;
71979;SDS011;59853;48.190;11.860;2022-07-18T04:13:16;5.15;;;2.90;;
71979;SDS011;59853;48.190;11.860;2022-07-18T04:15:41;4.55;;;3.10;;
71979;SDS011;59853;48.190;11.860;2022-07-18T04:18:07;5.65;;;2.97;;
71979;SDS011;59853;48.190;11.860;2022-07-18T04:20:33;4.70;;;3.55;;
71979;SDS011;59853;48.190;11.860;2022-07-18T04:23:00;5.20;;;3.10;;
71979;SDS011;59853;48.190;11.860;2022-07-18T04:25:27;6.93;;;3.15;;
71979;SDS011;59853;48.190;11.860;2022-07-18T04:27:54;6.25;;;4.20;;
71979;SDS011;59853;48.190;11.860;2022-07-18T04:30:21;5.47;;;3.13;;
71979;SDS011;59853;48.190;11.860;2022-07-18T04:32:47;5.78;;;3.75;;
71979;SDS011;59853;48.190;11.860;2022-07-18T04:35:13;6.45;;;4.05;;
71979;SDS011;59853;48.190;11.860;2022-07-18T04:37:39;7.30;;;4.80;;
71979;SDS011;59853;48.190;11.860;2022-07-18T04:40:05;6.90;;;4.28;;
71979;SDS011;59853;48.190;11.860;2022-07-18T04:42:31;5.07;;;3.20;;
71979;SDS011;59853;48.190;11.860;2022-07-18T04:44:57;4.70;;;3.30;;
71979;SDS011;59853;48.190;11.860;2022-07-18T04:47:23;6.57;;;3.55;;
71979;SDS011;59853;48.190;11.860;2022-07-18T04:49:49;5.35;;;3.40;;
71979;SDS011;59853;48.190;11.860;2022-07-18T04:52:15;5.45;;;3.67;;
71979;SDS011;59853;48.190;11.860;2022-07-18T04:54:40;4.72;;;3.30;;
71979;SDS011;59853;48.190;11.860;2022-07-18T04:57:05;5.25;;;3.53;;
71979;SDS011;59853;48.190;11.860;2022-07-18T04:59:31;6.03;;;4.50;;
71979;SDS011;59853;48.190;11.860;2022-07-18T05:01:56;6.53;;;3.80;;
71979;SDS011;59853;48.190;11.860;2022-07-18T05:04:21;6.38;;;4.15;;
71979;SDS011;59853;48.190;11.860;2022-07-18T05:06:48;5.65;;;3.70;;
71979;SDS011;59853;48.190;11.860;2022-07-18T05:09:13;4.22;;;3.40;;
71979;SDS011;59853;48.190;11.860;2022-07-18T05:11:38;4.30;;;3.33;;
71979;SDS011;59853;48.190;11.860;2022-07-18T05:14:04;4.95;;;3.53;;
71979;SDS011;59853;48.190;11.860;2022-07-18T05:16:30;5.68;;;3.20;;
71979;SDS011;59853;48.190;11.860;2022-07-18T05:18:55;6.57;;;3.15;;
71979;SDS011;59853;48.190;11.860;2022-07-18T05:21:20;4.30;;;3.17;;
71979;SDS011;59853;48.190;11.860;2022-07-18T05:23:46;6.10;;;3.50;;
71979;SDS011;59853;48.190;11.860;2022-07-18T05:26:12;5.18;;;3.13;;
71979;SDS011;59853;48.190;11.860;2022-07-18T05:28:37;5.32;;;2.90;;
71979;SDS011;59853;48.190;11.860;2022-07-18T05:31:03;4.72;;;3.03;;
71979;SDS011;59853;48.190;11.860;2022-07-18T05:33:28;4.13;;;3.10;;
71979;SDS011;59853;48.190;11.860;2022-07-18T05:35:53;5.53;;;3.47;;
71979;SDS011;59853;48.190;11.860;2022-07-18T05:38:19;3.72;;;2.83;;
71979;SDS011;59853;48.190;11.860;2022-07-18T05:40:44;3.28;;;2.40;;
71979;SDS011;59853;48.190;11.860;2022-07-18T05:43:09;4.80;;;3.00;;
71979;SDS011;59853;48.190;11.860;2022-07-18T05:45:35;3.75;;;2.58;;
71979;SDS011;59853;48.190;11.860;2022-07-18T05:48:00;3.47;;;2.47;;
71979;SDS011;59853;48.190;11.860;2022-07-18T05:50:26;3.55;;;2.25;;
71979;SDS011;59853;48.190;11.860;2022-07-18T05:52:52;3.92;;;2.33;;
71979;SDS011;59853;48.190;11.860;2022-07-18T05:55:17;4.70;;;2.60;;
71979;SDS011;59853;48.190;11.860;2022-07-18T05:57:43;4.43;;;2.38;;
71979;SDS011;59853;48.190;11.860;2022-07-18T06:00:09;5.18;;;2.55;;
71979;SDS011;59853;48.190;11.860;2022-07-18T06:02:35;3.75;;;2.42;;
71979;SDS011;59853;48.190;11.860;2022-07-18T06:05:01;4.53;;;2.80;;
71979;SDS011;59853;48.190;11.860;2022-07-18T06:07:27;5.25;;;2.60;;
71979;SDS011;59853;48.190;11.860;2022-07-18T06:09:52;5.75;;;2.90;;
71979;SDS011;59853;48.190;11.860;2022-07-18T06:12:18;3.53;;;2.50;;
71979;SDS011;59853;48.190;11.860;2022-07-18T06:14:43;3.65;;;2.75;;
71979;SDS011;59853;48.190;11.860;2022-07-18T06:17:09;6.53;;;2.63;;
71979;SDS011;59853;48.190;11.860;2022-07-18T06:19:34;9.75;;;3.10;;
71979;SDS011;59853;48.190;11.860;2022-07-18T06:21:59;14.75;;;4.70;;
71979;SDS011;59853;48.190;11.860;2022-07-18T06:24:25;9.00;;;3.50;;
71979;SDS011;59853;48.190;11.860;2022-07-18T06:26:50;9.70;;;3.38;;
71979;SDS011;59853;48.190;11.860;2022-07-18T06:29:16;11.95;;;3.50;;
71979;SDS011;59853;48.190;11.860;2022-07-18T06:31:42;7.30;;;3.00;;
71979;SDS011;59853;48.190;11.860;2022-07-18T06:34:07;6.43;;;2.95;;
71979;SDS011;59853;48.190;11.860;2022-07-18T06:36:33;6.28;;;3.03;;
71979;SDS011;59853;48.190;11.860;2022-07-18T06:38:58;8.85;;;3.30;;
71979;SDS011;59853;48.190;11.860;2022-07-18T06:41:23;9.48;;;3.75;;
71979;SDS011;59853;48.190;11.860;2022-07-18T06:43:49;8.98;;;2.95;;
71979;SDS011;59853;48.190;11.860;2022-07-18T06:46:14;9.85;;;3.53;;
71979;SDS011;59853;48.190;11.860;2022-07-18T06:48:40;7.80;;;3.38;;
71979;SDS011;59853;48.190;11.860;2022-07-18T06:51:06;6.80;;;3.05;;
71979;SDS011;59853;48.190;11.860;2022-07-18T06:53:33;8.20;;;2.80;;
71979;SDS011;59853;48.190;11.860;2022-07-18T06:55:59;7.18;;;2.90;;
71979;SDS011;59853;48.190;11.860;2022-07-18T06:58:24;5.63;;;2.97;;
71979;SDS011;59853;48.190;11.860;2022-07-18T07:00:50;7.57;;;3.60;;
71979;SDS011;59853;48.190;11.860;2022-07-18T07:03:16;5.28;;;3.15;;
71979;SDS011;59853;48.190;11.860;2022-07-18T07:05:41;8.98;;;3.40;;
71979;SDS011;59853;48.190;11.860;2022-07-18T07:08:07;10.70;;;3.28;;
71979;SDS011;59853;48.190;11.860;2022-07-18T07:10:32;6.97;;;3.25;;
71979;SDS011;59853;48.190;11.860;2022-07-18T07:12:58;6.03;;;3.17;;
71979;SDS011;59853;48.190;11.860;2022-07-18T07:15:23;5.80;;;3.10;;
71979;SDS011;59853;48.190;11.860;2022-07-18T07:17:49;5.30;;;3.00;;
71979;SDS011;59853;48.190;11.860;2022-07-18T07:20:15;5.90;;;3.22;;
71979;SDS011;59853;48.190;11.860;2022-07-18T07:22:47;8.13;;;2.97;;
71979;SDS011;59853;48.190;11.860;2022-07-18T07:25:14;8.07;;;3.55;;
71979;SDS011;59853;48.190;11.860;2022-07-18T07:27:40;10.23;;;3.30;;
71979;SDS011;59853;48.190;11.860;2022-07-18T07:30:06;5.57;;;2.92;;
71979;SDS011;59853;48.190;11.860;2022-07-18T07:32:36;7.78;;;2.95;;
71979;SDS011;59853;48.190;11.860;2022-07-18T07:35:07;5.68;;;2.67;;
71979;SDS011;59853;48.190;11.860;2022-07-18T07:37:35;4.85;;;2.55;;
71979;SDS011;59853;48.190;11.860;2022-07-18T07:40:01;4.60;;;2.17;;
71979;SDS011;59853;48.190;11.860;2022-07-18T07:42:27;6.53;;;2.30;;
71979;SDS011;59853;48.190;11.860;2022-07-18T07:44:52;4.40;;;2.10;;
71979;SDS011;59853;48.190;11.860;2022-07-18T07:47:17;5.20;;;2.40;;
71979;SDS011;59853;48.190;11.860;2022-07-18T07:49:43;2.92;;;1.92;;
71979;SDS011;59853;48.190;11.860;2022-07-18T07:52:08;4.15;;;2.00;;
71979;SDS011;59853;48.190;11.860;2022-07-18T07:54:33;3.28;;;2.25;;
71979;SDS011;59853;48.190;11.860;2022-07-18T07:56:59;3.25;;;1.98;;
71979;SDS011;59853;48.190;11.860;2022-07-18T07:59:25;4.22;;;2.30;;
71979;SDS011;59853;48.190;11.860;2022-07-18T08:01:50;4.32;;;2.67;;
71979;SDS011;59853;48.190;11.860;2022-07-18T08:04:15;3.33;;;1.90;;
71979;SDS011;59853;48.190;11.860;2022-07-18T08:06:41;3.42;;;1.67;;
71979;SDS011;59853;48.190;11.860;2022-07-18T08:09:06;3.00;;;1.70;;
71979;SDS011;59853;48.190;11.860;2022-07-18T08:11:33;2.17;;;1.73;;
71979;SDS011;59853;48.190;11.860;2022-07-18T08:13:58;2.88;;;1.50;;
71979;SDS011;59853;48.190;11.860;2022-07-18T08:16:24;4.30;;;2.00;;
71979;SDS011;59853;48.190;11.860;2022-07-18T08:18:49;4.78;;;1.80;;
71979;SDS011;59853;48.190;11.860;2022-07-18T08:21:14;3.95;;;2.13;;
71979;SDS011;59853;48.190;11.860;2022-07-18T08:23:40;2.78;;;1.90;;
71979;SDS011;59853;48.190;11.860;2022-07-18T08:26:05;4.10;;;1.92;;
71979;SDS011;59853;48.190;11.860;2022-07-18T08:28:30;3.38;;;1.88;;
71979;SDS011;59853;48.190;11.860;2022-07-18T08:30:56;3.63;;;1.80;;
71979;SDS011;59853;48.190;11.860;2022-07-18T08:33:21;2.47;;;1.60;;
71979;SDS011;59853;48.190;11.860;2022-07-18T08:35:47;2.10;;;1.42;;
71979;SDS011;59853;48.190;11.860;2022-07-18T08:38:12;3.20;;;1.67;;
71979;SDS011;59853;48.190;11.860;2022-07-18T08:40:37;2.92;;;1.80;;
71979;SDS011;59853;48.190;11.860;2022-07-18T08:43:03;3.10;;;1.42;;
71979;SDS011;59853;48.190;11.860;2022-07-18T08:45:29;3.42;;;1.40;;
71979;SDS011;59853;48.190;11.860;2022-07-18T08:47:55;2.83;;;1.70;;
71979;SDS011;59853;48.190;11.860;2022-07-18T08:50:20;3.22;;;1.50;;
71979;SDS011;59853;48.190;11.860;2022-07-18T08:52:46;3.25;;;1.60;;
71979;SDS011;59853;48.190;11.860;2022-07-18T08:55:13;2.08;;;1.50;;
71979;SDS011;59853;48.190;11.860;2022-07-18T08:57:39;1.92;;;1.38;;
71979;SDS011;59853;48.190;11.860;2022-07-18T09:00:05;3.15;;;1.42;;
71979;SDS011;59853;48.190;11.860;2022-07-18T09:02:34;2.80;;;1.42;;
71979;SDS011;59853;48.190;11.860;2022-07-18T09:05:00;3.30;;;1.40;;
71979;SDS011;59853;48.190;11.860;2022-07-18T09:07:27;2.33;;;1.48;;
71979;SDS011;59853;48.190;11.860;2022-07-18T09:09:56;4.15;;;1.45;;
71979;SDS011;59853;48.190;11.860;2022-07-18T09:12:23;3.58;;;1.30;;
71979;SDS011;59853;48.190;11.860;2022-07-18T09:14:50;2.15;;;1.50;;
71979;SDS011;59853;48.190;11.860;2022-07-18T09:17:16;4.00;;;1.80;;
71979;SDS011;59853;48.190;11.860;2022-07-18T09:20:07;2.38;;;1.13;;
71979;SDS011;59853;48.190;11.860;2022-07-18T09:27:32;1.63;;;1.00;;
71979;SDS011;59853;48.190;11.860;2022-07-18T09:30:44;3.17;;;1.27;;
71979;SDS011;59853;48.190;11.860;2022-07-18T09:32:46;2.42;;;1.20;;
71979;SDS011;59853;48.190;11.860;2022-07-18T09:35:18;3.28;;;1.17;;
71979;SDS011;59853;48.190;11.860;2022-07-18T09:37:54;2.67;;;1.05;;
71979;SDS011;59853;48.190;11.860;2022-07-18T09:40:34;2.45;;;1.23;;
71979;SDS011;59853;48.190;11.860;2022-07-18T09:43:02;2.53;;;1.13;;
71979;SDS011;59853;48.190;11.860;2022-07-18T09:45:35;3.20;;;1.40;;
71979;SDS011;59853;48.190;11.860;2022-07-18T09:50:37;3.87;;;1.60;;
71979;SDS011;59853;48.190;11.860;2022-07-18T09:53:11;2.63;;;1.40;;
71979;SDS011;59853;48.190;11.860;2022-07-18T09:55:54;1.80;;;1.10;;
71979;SDS011;59853;48.190;11.860;2022-07-18T09:58:24;2.40;;;1.25;;
71979;SDS011;59853;48.190;11.860;2022-07-18T10:00:58;2.70;;;1.27;;
71979;SDS011;59853;48.190;11.860;2022-07-18T10:03:26;2.72;;;0.90;;
71979;SDS011;59853;48.190;11.860;2022-07-18T10:05:52;2.20;;;1.08;;
71979;SDS011;59853;48.190;11.860;2022-07-18T10:08:23;2.85;;;1.10;;
71979;SDS011;59853;48.190;11.860;2022-07-18T10:10:51;2.05;;;1.20;;
71979;SDS011;59853;48.190;11.860;2022-07-18T10:13:17;1.85;;;0.90;;
71979;SDS011;59853;48.190;11.860;2022-07-18T10:15:45;2.33;;;1.30;;
71979;SDS011;59853;48.190;11.860;2022-07-18T10:18:12;1.70;;;1.10;;
71979;SDS011;59853;48.190;11.860;2022-07-18T10:20:39;2.20;;;1.02;;
71979;SDS011;59853;48.190;11.860;2022-07-18T10:23:16;2.17;;;1.00;;
71979;SDS011;59853;48.190;11.860;2022-07-18T10:25:43;2.45;;;1.20;;
71979;SDS011;59853;48.190;11.860;2022-07-18T10:28:12;2.75;;;1.02;;
71979;SDS011;59853;48.190;11.860;2022-07-18T10:30:44;2.85;;;0.95;;
71979;SDS011;59853;48.190;11.860;2022-07-18T10:42:18;1.75;;;1.13;;
71979;SDS011;59853;48.190;11.860;2022-07-18T10:47:09;3.20;;;1.35;;
71979;SDS011;59853;48.190;11.860;2022-07-18T10:57:38;2.05;;;1.00;;
71979;SDS011;59853;48.190;11.860;2022-07-18T11:00:06;2.97;;;1.00;;
71979;SDS011;59853;48.190;11.860;2022-07-18T11:13:35;1.92;;;1.10;;
71979;SDS011;59853;48.190;11.860;2022-07-18T11:21:22;5.18;;;1.00;;
71979;SDS011;59853;48.190;11.860;2022-07-18T11:26:18;2.00;;;0.97;;
71979;SDS011;59853;48.190;11.860;2022-07-18T11:28:48;1.92;;;0.90;;
71979;SDS011;59853;48.190;11.860;2022-07-18T11:31:14;4.45;;;1.10;;
71979;SDS011;59853;48.190;11.860;2022-07-18T11:33:44;3.22;;;1.20;;
71979;SDS011;59853;48.190;11.860;2022-07-18T11:36:14;1.50;;;0.98;;
71979;SDS011;59853;48.190;11.860;2022-07-18T11:38:51;1.90;;;0.85;;
71979;SDS011;59853;48.190;11.860;2022-07-18T11:41:18;3.15;;;1.05;;
71979;SDS011;59853;48.190;11.860;2022-07-18T11:43:45;1.77;;;1.00;;
71979;SDS011;59853;48.190;11.860;2022-07-18T11:46:12;1.98;;;1.10;;
71979;SDS011;59853;48.190;11.860;2022-07-18T11:48:38;4.50;;;0.82;;
71979;SDS011;59853;48.190;11.860;2022-07-18T11:51:11;2.13;;;1.10;;
71979;SDS011;59853;48.190;11.860;2022-07-18T11:56:10;1.88;;;0.90;;
71979;SDS011;59853;48.190;11.860;2022-07-18T11:58:36;4.00;;;1.25;;
71979;SDS011;59853;48.190;11.860;2022-07-18T12:01:02;1.40;;;0.85;;
71979;SDS011;59853;48.190;11.860;2022-07-18T12:03:28;2.47;;;1.00;;
71979;SDS011;59853;48.190;11.860;2022-07-18T12:05:54;2.53;;;1.10;;
71979;SDS011;59853;48.190;11.860;2022-07-18T12:08:26;2.03;;;1.10;;
71979;SDS011;59853;48.190;11.860;2022-07-18T12:16:08;1.98;;;1.13;;
71979;SDS011;59853;48.190;11.860;2022-07-18T12:18:51;1.85;;;1.00;;
71979;SDS011;59853;48.190;11.860;2022-07-18T12:21:18;2.00;;;1.00;;
71979;SDS011;59853;48.190;11.860;2022-07-18T12:23:43;2.67;;;1.05;;
71979;SDS011;59853;48.190;11.860;2022-07-18T12:26:09;1.35;;;0.88;;
71979;SDS011;59853;48.190;11.860;2022-07-18T12:28:34;2.58;;;0.90;;
71979;SDS011;59853;48.190;11.860;2022-07-18T12:31:00;3.03;;;0.93;;
71979;SDS011;59853;48.190;11.860;2022-07-18T12:33:25;2.13;;;1.02;;
71979;SDS011;59853;48.190;11.860;2022-07-18T12:35:55;2.03;;;1.02;;
71979;SDS011;59853;48.190;11.860;2022-07-18T12:38:21;1.90;;;1.00;;
71979;SDS011;59853;48.190;11.860;2022-07-18T12:40:48;2.80;;;0.80;;
71979;SDS011;59853;48.190;11.860;2022-07-18T12:43:33;1.92;;;0.93;;
71979;SDS011;59853;48.190;11.860;2022-07-18T12:46:01;2.33;;;0.90;;
71979;SDS011;59853;48.190;11.860;2022-07-18T12:51:01;2.63;;;1.17;;
71979;SDS011;59853;48.190;11.860;2022-07-18T12:53:37;3.17;;;1.00;;
71979;SDS011;59853;48.190;11.860;2022-07-18T12:56:07;2.83;;;1.05;;
71979;SDS011;59853;48.190;11.860;2022-07-18T12:58:32;1.65;;;1.00;;
71979;SDS011;59853;48.190;11.860;2022-07-18T13:00:58;2.25;;;1.17;;
71979;SDS011;59853;48.190;11.860;2022-07-18T13:03:23;3.08;;;1.00;;
71979;SDS011;59853;48.190;11.860;2022-07-18T13:05:49;2.58;;;1.08;;
71979;SDS011;59853;48.190;11.860;2022-07-18T13:08:14;5.03;;;2.75;;
71979;SDS011;59853;48.190;11.860;2022-07-18T13:10:40;2.45;;;1.17;;
71979;SDS011;59853;48.190;11.860;2022-07-18T13:13:07;2.42;;;1.00;;
71979;SDS011;59853;48.190;11.860;2022-07-18T13:15:33;2.78;;;1.23;;
71979;SDS011;59853;48.190;11.860;2022-07-18T13:17:58;3.38;;;1.08;;
71979;SDS011;59853;48.190;11.860;2022-07-18T13:20:24;1.77;;;0.90;;
71979;SDS011;59853;48.190;11.860;2022-07-18T13:22:50;4.60;;;1.13;;
71979;SDS011;59853;48.190;11.860;2022-07-18T13:25:15;3.08;;;1.20;;
71979;SDS011;59853;48.190;11.860;2022-07-18T13:27:41;2.67;;;1.05;;
71979;SDS011;59853;48.190;11.860;2022-07-18T13:30:10;1.83;;;0.90;;
71979;SDS011;59853;48.190;11.860;2022-07-18T13:32:35;2.88;;;1.10;;
71979;SDS011;59853;48.190;11.860;2022-07-18T13:35:01;3.45;;;1.10;;
71979;SDS011;59853;48.190;11.860;2022-07-18T13:37:27;2.85;;;0.80;;
71979;SDS011;59853;48.190;11.860;2022-07-18T13:39:52;2.95;;;1.10;;
71979;SDS011;59853;48.190;11.860;2022-07-18T13:42:18;2.08;;;0.98;;
71979;SDS011;59853;48.190;11.860;2022-07-18T13:44:43;2.40;;;1.25;;
71979;SDS011;59853;48.190;11.860;2022-07-18T13:47:12;1.83;;;0.93;;
71979;SDS011;59853;48.190;11.860;2022-07-18T13:49:38;2.35;;;1.02;;
71979;SDS011;59853;48.190;11.860;2022-07-18T13:52:03;2.30;;;1.02;;
71979;SDS011;59853;48.190;11.860;2022-07-18T13:54:29;2.28;;;0.90;;
71979;SDS011;59853;48.190;11.860;2022-07-18T13:56:54;3.58;;;1.00;;
71979;SDS011;59853;48.190;11.860;2022-07-18T13:59:20;3.47;;;0.93;;
71979;SDS011;59853;48.190;11.860;2022-07-18T14:01:45;2.17;;;1.00;;
71979;SDS011;59853;48.190;11.860;2022-07-18T14:04:10;2.33;;;1.00;;
71979;SDS011;59853;48.190;11.860;2022-07-18T14:06:36;2.42;;;0.95;;
71979;SDS011;59853;48.190;11.860;2022-07-18T14:09:04;2.17;;;0.88;;
71979;SDS011;59853;48.190;11.860;2022-07-18T14:11:30;2.20;;;1.05;;
71979;SDS011;59853;48.190;11.860;2022-07-18T14:14:00;3.85;;;1.27;;
71979;SDS011;59853;48.190;11.860;2022-07-18T14:16:25;2.72;;;1.08;;
71979;SDS011;59853;48.190;11.860;2022-07-18T14:18:51;3.47;;;1.30;;
71979;SDS011;59853;48.190;11.860;2022-07-18T14:21:16;3.35;;;0.95;;
71979;SDS011;59853;48.190;11.860;2022-07-18T14:23:42;3.58;;;1.02;;
71979;SDS011;59853;48.190;11.860;2022-07-18T14:26:07;2.60;;;1.10;;
71979;SDS011;59853;48.190;11.860;2022-07-18T14:28:32;1.58;;;1.00;;
71979;SDS011;59853;48.190;11.860;2022-07-18T14:30:58;2.25;;;0.80;;
71979;SDS011;59853;48.190;11.860;2022-07-18T14:33:26;2.20;;;1.10;;
71979;SDS011;59853;48.190;11.860;2022-07-18T14:35:51;2.33;;;0.82;;
71979;SDS011;59853;48.190;11.860;2022-07-18T14:38:17;2.70;;;1.15;;
71979;SDS011;59853;48.190;11.860;2022-07-18T14:40:48;2.15;;;1.20;;
71979;SDS011;59853;48.190;11.860;2022-07-18T14:43:13;1.73;;;0.90;;
71979;SDS011;59853;48.190;11.860;2022-07-18T14:45:39;1.98;;;0.90;;
71979;SDS011;59853;48.190;11.860;2022-07-18T14:48:04;4.10;;;1.63;;
71979;SDS011;59853;48.190;11.860;2022-07-18T14:50:30;3.00;;;1.10;;
71979;SDS011;59853;48.190;11.860;2022-07-18T14:52:55;2.17;;;1.13;;
71979;SDS011;59853;48.190;11.860;2022-07-18T14:55:20;1.60;;;1.10;;
71979;SDS011;59853;48.190;11.860;2022-07-18T14:57:49;2.80;;;0.90;;
71979;SDS011;59853;48.190;11.860;2022-07-18T15:00:14;2.03;;;0.90;;
71979;SDS011;59853;48.190;11.860;2022-07-18T15:02:43;1.77;;;1.00;;
71979;SDS011;59853;48.190;11.860;2022-07-18T15:05:08;2.10;;;1.13;;
71979;SDS011;59853;48.190;11.860;2022-07-18T15:07:34;2.55;;;1.25;;
71979;SDS011;59853;48.190;11.860;2022-07-18T15:10:00;2.22;;;1.08;;
71979;SDS011;59853;48.190;11.860;2022-07-18T15:12:26;2.42;;;1.15;;
71979;SDS011;59853;48.190;11.860;2022-07-18T15:14:53;2.30;;;1.08;;
71979;SDS011;59853;48.190;11.860;2022-07-18T15:17:21;2.45;;;1.10;;
71979;SDS011;59853;48.190;11.860;2022-07-18T15:19:46;2.20;;;1.00;;
71979;SDS011;59853;48.190;11.860;2022-07-18T15:22:12;2.28;;;1.08;;
71979;SDS011;59853;48.190;11.860;2022-07-18T15:24:37;3.30;;;1.17;;